メインページ
METAR-TAF:

METAR-TAF

空港 :

マプト, モザンビーク

マプト国際空港

緯度: 25-55S, 経度: 032-34E, 海抜: 39m

現時点の気象観測

当レポートは1時間32分前の00:00(UTC)に作成
の風 4kt
気温 25°C
湿度 79%
気圧 1015 hPa
視程10km以上
高度2000ftの千切れ雲あり

METAR: FQMA 180000Z 09004KT 9999 BKN020 25/21 Q1015 NOSIG

時間: 03:32 (01:32 UTC)

予報

当レポートは3時間32分前の22:00(UTC)に作成
予報は18日の 00時(UTC)から 19日の 06時(UTC)まで有効
南西の風 10kt
視程10km以上
高度2000ftの雲は散在している
18日の 06時(UTC)から 18日の 08時(UTC)まで徐々に
南/南東の風 11kt
高度2500ftの千切れ雲あり
18日の 12時(UTC)から 18日の 14時(UTC)まで徐々に
の風 13kt
高度3000ftの雲はほとんどない
18日の 18時(UTC)から 18日の 20時(UTC)まで徐々に
北/北東の風 10kt

TAF: FQMA 172200Z 1800/1906 23010KT 9999 SCT020 BECMG 1806/1808 16011KT BKN025 BECMG 1812/1814 10013KT FEW030 BECMG 1818/1820 03010KT TN24/1803Z TX31/1813Z

4,000以上の空港の気象観測と天気予報(METAR報とTAF報)

利用可能な観測所は地図上に黄色い丸と赤い丸で示す。

丸の上にカーソルを重ねると観測所名を参照できる。

次にクリックすると気象観測と天気予報を参照できる。

マップの切り替え:黒色「×」印の緑ボタンをクリックして拡大、「-」印の緑ボタンをクリックして縮小、緑色の三角印をクリックして隣りの地図に切り替え


METAR-TAF: